Nearby METAR Reports

 

KSJC - San Jose, California, USA
Distance from station: NE 9mi, 14km
Updated: Thu, 22-Feb-2018 3:53am PST
Overcast
Overcast
 Wind from SSE
Wind: SSE 3 mph , 6 km/h
Temperature: 43°F , 6°C
Dew Point: 34°F , 1°C
Humidity: 71%
Barometer: 30.21 inHg , 1023 hPa
Clouds: Overcast
Visibility: 10 miles , 16 km
Cloud details: Partly cloudy 2400 ft
Mostly cloudy 3100 ft
Overcast 4200 ft
2018/02/22 11:53 KSJC 221153Z AUTO 16003KT 10SM SCT024 BKN031 OVC042 06/01 A3021 RMK AO2 SLP229 T00610011 10083 20050 58004
KNUQ - Moffett Nas/Mtn, California, USA
Distance from station: N 9mi, 14km
Updated: Thu, 22-Feb-2018 3:56am PST
Overcast
Overcast
 Wind from SSW
Wind: SSW 3 mph , 6 km/h
Temperature: 45°F , 7°C
Dew Point: 37°F , 3°C
Humidity: 76%
Barometer: 30.21 inHg , 1023 hPa
Clouds: Overcast
Visibility: 10 miles , 16 km
Cloud details: Mostly cloudy 4400 ft
Overcast 5500 ft
2018/02/22 11:56 KNUQ 221156Z 20003KT 10SM BKN044 OVC055 07/03 A3021 RMK AO2 SLP232 T00720028 10083 20044 58004
 
KPAO - Palo Alto, California, USA
Distance from station: NNW 14mi, 23km
Updated: Wed, 21-Feb-2018 8:47pm PST
NOT Current
Clear
Clear
 Wind from calm
Wind: Calm
Clouds: Clear
Visibility: 10 miles , 16 km
2018/02/22 04:47 KPAO 220447Z 00000KT 10SM SKC --/-- A3021 RMK LAST
KRHV - San Jose/Reid, California, USA
Distance from station: ENE 12mi, 19km
Updated: Wed, 21-Feb-2018 9:50pm PST
NOT Current
Clear
Clear
 Wind from calm
Wind: Calm
Temperature: 45°F , 7°C
Dew Point: 30°F , -1°C
Humidity: 57%
Barometer: 30.19 inHg , 1022.4 hPa
Clouds: Clear
Visibility: 10 miles , 16 km
2018/02/22 05:50 KRHV 220550Z 00000KT 10SM SKC 07/M01 A3019 RMK LAST
 
KOAK - Oakland, California, USA
Distance from station: NNW 31mi, 50km
Updated: Thu, 22-Feb-2018 3:53am PST
Overcast
Overcast
 Wind from WNW
Wind: WNW 18 mph , 30 km/h
Temperature: 48°F , 9°C
Wind Chill: 41°F , 5°C
Dew Point: 39°F , 4°C
Humidity: 71%
Barometer: 30.19 inHg , 1022.4 hPa
Clouds: Overcast
Visibility: 10 miles , 16 km
Cloud details: Few Clouds 3700 ft
Overcast 4700 ft
2018/02/22 11:53 KOAK 221153Z 29016KT 10SM FEW037 OVC047 09/04 A3019 RMK AO2 SLP224 T00890044 10089 20044 58005
KSQL - San Carlos Airpo, California, USA
Distance from station: NW 21mi, 34km
Updated: Thu, 22-Feb-2018 4:15am PST
Overcast
Overcast
 Wind from W
Wind: W 7 mph , 11 km/h
Temperature: 48°F , 9°C
Wind Chill: 45°F , 7°C
Dew Point: 37°F , 3°C
Humidity: 66%
Barometer: 30.20 inHg , 1022.7 hPa
Clouds: Overcast
Visibility: 10 miles , 16 km
Cloud details: Partly cloudy 4300 ft
Overcast 4900 ft
2018/02/22 12:15 KSQL 221215Z AUTO 27006KT 10SM SCT043 OVC049 09/03 A3020 RMK AO2
 
KSFO - San Francisco, California, USA
Distance from station: NW 30mi, 49km
Updated: Thu, 22-Feb-2018 3:56am PST
Mostly cloudy
Mostly cloudy
 Wind from W
Wind: W 15 mph , 24 km/h
Temperature: 48°F , 9°C
Wind Chill: 42°F , 6°C
Dew Point: 36°F , 2°C
Humidity: 62%
Barometer: 30.20 inHg , 1022.7 hPa
Clouds: Mostly cloudy
Visibility: 10 miles , 16 km
Cloud details: Few Clouds 2600 ft
Mostly cloudy 3500 ft
Mostly cloudy 4700 ft
2018/02/22 11:56 KSFO 221156Z 28013KT 10SM FEW026 BKN035 BKN047 09/02 A3020 RMK AO2 PK WND 30027/1134 RAB08E18 SLP225 P0000 60000 T00940022 10094 20089 56005
KE16 - San Martin, California, USA
Distance from station: ESE 27mi, 43km
Updated: Thu, 22-Feb-2018 4:15am PST
Overcast
Overcast
 Wind from E
Wind: E 3 mph , 6 km/h
Temperature: 36°F , 2°C
Dew Point: 32°F , 0°C
Humidity: 87%
Barometer: 30.23 inHg , 1023.7 hPa
Clouds: Overcast
Visibility: 10 miles , 16 km
Cloud details: Partly cloudy 3700 ft
Overcast 4500 ft
2018/02/22 12:15 KE16 221215Z AUTO 10003KT 10SM SCT037 OVC045 02/00 A3023 RMK AO2
 
KWVI - Watsonville, California, USA
Distance from station: SSE 27mi, 44km
Updated: Thu, 22-Feb-2018 3:53am PST
Mostly cloudy
Mostly cloudy
 Wind from N
Wind: N 3 mph , 6 km/h
Temperature: 37°F , 3°C
Dew Point: 36°F , 2°C
Humidity: 93%
Barometer: 30.21 inHg , 1023 hPa
Clouds: Mostly cloudy
Visibility: 9 miles , 14 km
Cloud details: Partly cloudy 3700 ft
Mostly cloudy 4400 ft
2018/02/22 11:53 KWVI 221153Z AUTO 01003KT 9SM SCT037 BKN044 03/02 A3021 RMK AO2 SLP232 T00330017 10050 20017 58004
KHAF - Half Moon Bay, California, USA
Distance from station: WNW 31mi, 50km
Updated: Thu, 22-Feb-2018 4:15am PST
Overcast
Overcast
 Wind from NNW
Wind: NNW 16 mph , 26 km/h, Gust: 23 mph , 37 km/h
Temperature: 48°F , 9°C
Wind Chill: 42°F , 6°C
Dew Point: 37°F , 3°C
Humidity: 66%
Barometer: 30.18 inHg , 1022 hPa
Clouds: Overcast
Visibility: 10 miles , 16 km
Cloud details: Few Clouds 2700 ft
Overcast 3600 ft
2018/02/22 12:15 KHAF 221215Z AUTO 33014G20KT 10SM FEW027 OVC036 09/03 A3018 RMK AO2
 
KHWD - Hayward, California, USA
Distance from station: N 28mi, 44km
Updated: Thu, 22-Feb-2018 4:16am PST
Overcast
Overcast
 Wind from WNW
Wind: WNW 10 mph , 17 km/h
Temperature: 48°F , 9°C
Wind Chill: 44°F , 7°C
Dew Point: 37°F , 3°C
Humidity: 66%
Barometer: 30.19 inHg , 1022.4 hPa
Clouds: Overcast
Visibility: 10 miles , 16 km
Cloud details: Few Clouds 2400 ft
Partly cloudy 3100 ft
Overcast 4300 ft
2018/02/22 12:16 KHWD 221216Z AUTO 30009KT 10SM FEW024 SCT031 OVC043 09/03 A3019 RMK AO2 RAE09 P0000 T00890028
KLVK - Livermore, California, USA
Distance from station: NNE 31mi, 51km
Updated: Thu, 22-Feb-2018 4:19am PST
Overcast
Overcast
 Wind from S
Wind: S 5 mph , 7 km/h
Temperature: 45°F , 7°C
Wind Chill: 42°F , 6°C
Dew Point: 37°F , 3°C
Humidity: 76%
Barometer: 30.17 inHg , 1021.7 hPa
Clouds: Overcast
Visibility: 10 miles , 16 km
Cloud details: Few Clouds 2100 ft
Partly cloudy 3600 ft
Overcast 4400 ft
2018/02/22 12:19 KLVK 221219Z 19004KT 10SM FEW021 SCT036 OVC044 07/03 A3017 RMK AO2 T00670033